createdAt,value
2022-12-03T00:01:48.961Z,40.70
2022-12-03T00:04:15.612Z,26.50
2022-12-03T00:06:42.359Z,30.70
2022-12-03T00:09:09.153Z,52.20
2022-12-03T00:11:35.820Z,34.70
2022-12-03T00:14:02.765Z,45.50
2022-12-03T00:16:29.411Z,38.30
2022-12-03T00:18:56.202Z,42.80
2022-12-03T00:21:24.638Z,44.00
2022-12-03T00:23:51.806Z,45.80
2022-12-03T00:26:18.516Z,30.40
2022-12-03T00:28:45.175Z,47.50
2022-12-03T00:31:13.249Z,46.50
2022-12-03T00:33:40.106Z,45.80
2022-12-03T00:36:07.288Z,43.60
2022-12-03T00:38:33.879Z,40.20
2022-12-03T00:41:00.730Z,43.20
2022-12-03T00:43:27.438Z,42.40
2022-12-03T00:45:54.203Z,43.40
2022-12-03T00:48:20.816Z,41.20
2022-12-03T00:50:47.653Z,42.90
2022-12-03T00:53:14.350Z,42.30
2022-12-03T00:55:41.045Z,41.50
2022-12-03T00:58:10.536Z,41.30
2022-12-03T01:00:37.949Z,39.00
2022-12-03T01:03:05.459Z,37.80
2022-12-03T01:05:32.189Z,38.90
2022-12-03T01:07:59.063Z,38.00
2022-12-03T01:10:25.926Z,27.30
2022-12-03T01:12:52.655Z,36.00
2022-12-03T01:15:19.318Z,37.50
2022-12-03T01:17:46.199Z,38.10
2022-12-03T01:20:13.087Z,37.60
2022-12-03T01:22:40.040Z,22.30
2022-12-03T01:25:07.772Z,19.90
2022-12-03T01:27:34.651Z,31.60
2022-12-03T01:30:01.628Z,24.00
2022-12-03T01:32:28.251Z,23.50
2022-12-03T01:34:55.934Z,29.30
2022-12-03T01:37:25.128Z,21.90
2022-12-03T01:39:52.037Z,23.90
2022-12-03T01:42:25.333Z,25.20
2022-12-03T01:44:54.379Z,39.40
2022-12-03T01:47:27.444Z,29.80
2022-12-03T01:50:07.208Z,23.90
2022-12-03T01:52:37.794Z,21.90
2022-12-03T01:55:12.036Z,22.70
2022-12-03T01:57:46.013Z,28.20
2022-12-03T02:00:18.058Z,33.90
2022-12-03T02:02:47.800Z,37.80
2022-12-03T02:05:22.145Z,40.90
2022-12-03T02:07:50.049Z,29.00
2022-12-03T02:10:20.576Z,39.10
2022-12-03T02:12:57.123Z,30.60
2022-12-03T02:15:24.389Z,39.30
2022-12-03T02:17:51.767Z,31.00
2022-12-03T02:20:19.430Z,29.30
2022-12-03T02:22:50.641Z,24.60
2022-12-03T02:25:26.684Z,19.50
2022-12-03T02:27:54.792Z,38.10
2022-12-03T02:30:25.517Z,37.80
2022-12-03T02:32:53.542Z,42.20
2022-12-03T02:35:23.673Z,39.10
2022-12-03T02:38:01.835Z,29.60
2022-12-03T02:40:31.915Z,19.10
2022-12-03T02:43:02.472Z,26.20
2022-12-03T02:45:33.736Z,21.10
2022-12-03T02:48:04.528Z,38.60
2022-12-03T02:50:39.464Z,30.60
2022-12-03T02:53:11.627Z,32.60
2022-12-03T02:55:39.785Z,39.00
2022-12-03T02:58:07.238Z,36.50
2022-12-03T03:00:35.552Z,25.00
2022-12-03T03:03:04.599Z,17.40
2022-12-03T03:05:32.631Z,35.40
2022-12-03T03:08:00.369Z,25.30
2022-12-03T03:10:28.574Z,23.50
2022-12-03T03:12:55.910Z,18.70
2022-12-03T03:15:23.978Z,37.60
2022-12-03T03:17:51.249Z,38.60
2022-12-03T03:20:19.164Z,38.60
2022-12-03T03:22:45.893Z,39.70
2022-12-03T03:25:16.083Z,27.40
2022-12-03T03:27:44.219Z,18.10
2022-12-03T03:30:11.493Z,23.70
2022-12-03T03:32:39.458Z,24.00
2022-12-03T03:35:08.469Z,20.50
2022-12-03T03:37:35.699Z,19.30
2022-12-03T03:40:03.181Z,21.40
2022-12-03T03:42:29.755Z,22.50
2022-12-03T03:44:57.687Z,25.00
2022-12-03T03:47:25.258Z,33.90
2022-12-03T03:49:52.686Z,19.30
2022-12-03T03:52:20.147Z,38.40
2022-12-03T03:54:46.958Z,36.10
2022-12-03T03:57:13.991Z,37.00
2022-12-03T03:59:41.117Z,35.80
2022-12-03T04:02:19.899Z,38.40
2022-12-03T04:04:48.070Z,26.70
2022-12-03T04:07:15.927Z,35.40
2022-12-03T04:09:43.235Z,32.50
2022-12-03T04:12:30.580Z,37.30
2022-12-03T04:14:57.567Z,24.70
2022-12-03T04:17:24.523Z,38.10
2022-12-03T04:19:51.357Z,27.60
2022-12-03T04:22:36.640Z,38.70
2022-12-03T04:25:22.792Z,35.60
2022-12-03T04:28:11.815Z,38.10
2022-12-03T04:30:38.874Z,39.10
2022-12-03T04:33:24.210Z,40.50
2022-12-03T04:35:51.369Z,38.50
2022-12-03T04:38:18.211Z,30.50
2022-12-03T04:41:00.123Z,38.50
2022-12-03T04:43:27.911Z,30.60
2022-12-03T04:45:54.693Z,25.00
2022-12-03T04:48:21.451Z,40.60
2022-12-03T04:50:48.253Z,40.70
2022-12-03T04:53:15.181Z,38.40
2022-12-03T04:55:42.700Z,28.60
2022-12-03T04:58:10.119Z,34.30
2022-12-03T05:00:36.879Z,37.60
2022-12-03T05:03:04.201Z,41.20
2022-12-03T05:05:31.494Z,25.30
2022-12-03T05:07:58.189Z,39.80
2022-12-03T05:10:25.179Z,40.90
2022-12-03T05:12:51.808Z,28.70
2022-12-03T05:15:18.497Z,17.80
2022-12-03T05:17:45.295Z,36.90
2022-12-03T05:20:31.236Z,39.30
2022-12-03T05:22:57.969Z,32.80
2022-12-03T05:25:24.654Z,32.30
2022-12-03T05:27:51.367Z,33.70
2022-12-03T05:30:18.417Z,32.90
2022-12-03T05:33:10.772Z,30.20
2022-12-03T05:35:37.614Z,20.20
2022-12-03T05:38:04.311Z,32.80
2022-12-03T05:40:31.048Z,32.30
2022-12-03T05:43:00.593Z,33.00
2022-12-03T05:45:30.535Z,32.20
2022-12-03T05:47:58.984Z,32.20
2022-12-03T05:50:29.062Z,33.30
2022-12-03T05:52:56.905Z,35.30
2022-12-03T05:55:24.842Z,30.90
2022-12-03T05:57:51.920Z,18.20
2022-12-03T06:00:20.695Z,25.20
2022-12-03T06:02:47.629Z,32.80
2022-12-03T06:05:16.506Z,21.40
2022-12-03T06:07:43.459Z,16.70
2022-12-03T06:10:12.220Z,28.20
2022-12-03T06:12:39.198Z,29.00
2022-12-03T06:15:06.987Z,26.60
2022-12-03T06:17:33.796Z,19.50
2022-12-03T06:20:00.786Z,24.90
2022-12-03T06:22:27.534Z,18.70
2022-12-03T06:24:54.467Z,25.30
2022-12-03T06:27:21.262Z,29.70
2022-12-03T06:29:48.251Z,34.80
2022-12-03T06:32:15.133Z,39.00
2022-12-03T06:34:41.728Z,29.60
2022-12-03T06:37:08.560Z,32.80
2022-12-03T06:39:35.395Z,35.70
2022-12-03T06:42:02.339Z,43.30
2022-12-03T06:44:29.119Z,31.20
2022-12-03T06:46:55.873Z,21.00
2022-12-03T06:49:22.619Z,26.70
2022-12-03T06:51:49.524Z,45.60
2022-12-03T06:54:16.449Z,28.20
2022-12-03T06:56:45.462Z,22.90
2022-12-03T06:59:12.904Z,27.40
2022-12-03T07:01:39.756Z,44.50
2022-12-03T07:04:06.543Z,44.10
2022-12-03T07:06:33.355Z,47.70
2022-12-03T07:08:59.970Z,30.90
2022-12-03T07:11:31.423Z,44.70
2022-12-03T07:14:05.033Z,42.50
2022-12-03T07:16:36.296Z,41.50
2022-12-03T07:19:04.673Z,35.70
2022-12-03T07:21:31.752Z,27.20
2022-12-03T07:23:58.668Z,38.10
2022-12-03T07:26:25.499Z,41.50
2022-12-03T07:28:52.267Z,41.20
2022-12-03T07:31:19.144Z,26.50
2022-12-03T07:33:45.983Z,22.10
2022-12-03T07:36:12.728Z,23.90
2022-12-03T07:38:39.668Z,39.30
2022-12-03T07:41:06.766Z,39.60
2022-12-03T07:43:33.576Z,29.30
2022-12-03T07:46:00.270Z,52.30
2022-12-03T07:48:27.451Z,72.60
2022-12-03T07:50:54.362Z,64.10
2022-12-03T07:53:21.277Z,48.00
2022-12-03T07:55:47.810Z,90.10
2022-12-03T07:58:14.626Z,54.00
2022-12-03T08:00:41.543Z,36.90
2022-12-03T08:03:08.374Z,34.90
2022-12-03T08:05:34.954Z,24.70
2022-12-03T08:08:01.844Z,33.40
2022-12-03T08:10:28.710Z,37.10
2022-12-03T08:12:58.567Z,19.60
2022-12-03T08:15:32.252Z,36.80
2022-12-03T08:18:04.946Z,35.90
2022-12-03T08:20:37.118Z,36.00
2022-12-03T08:23:11.142Z,33.50
2022-12-03T08:25:37.901Z,29.30
2022-12-03T08:28:23.388Z,24.50
2022-12-03T08:31:20.581Z,22.30
2022-12-03T08:33:49.654Z,26.80
2022-12-03T08:36:30.764Z,27.30
2022-12-03T08:39:15.326Z,9.00
2022-12-03T08:42:00.854Z,23.10
2022-12-03T08:44:29.238Z,12.80
2022-12-03T08:47:19.364Z,16.00
2022-12-03T08:50:25.155Z,22.10
2022-12-03T08:52:53.608Z,15.60
2022-12-03T08:55:37.968Z,15.00
2022-12-03T08:58:22.560Z,27.30
2022-12-03T09:00:56.332Z,14.00
2022-12-03T09:03:24.058Z,26.20
2022-12-03T09:05:51.280Z,19.50
2022-12-03T09:08:18.086Z,14.40
2022-12-03T09:10:44.990Z,12.70
2022-12-03T09:13:11.594Z,14.70
2022-12-03T09:15:38.512Z,7.90
2022-12-03T09:18:05.172Z,24.50
2022-12-03T09:20:31.907Z,22.50
2022-12-03T09:22:58.679Z,19.10
2022-12-03T09:25:25.462Z,24.40
2022-12-03T09:27:52.467Z,24.00
2022-12-03T09:30:19.098Z,23.00
2022-12-03T09:32:45.964Z,25.00
2022-12-03T09:35:12.597Z,23.60
2022-12-03T09:37:39.366Z,16.10
2022-12-03T09:40:07.473Z,23.50
2022-12-03T09:42:34.581Z,22.10
2022-12-03T09:45:02.363Z,24.70
2022-12-03T09:47:30.392Z,15.80
2022-12-03T09:49:57.919Z,21.80
2022-12-03T09:52:27.734Z,21.20
2022-12-03T09:54:54.994Z,20.20
2022-12-03T09:57:22.022Z,19.00
2022-12-03T09:59:48.923Z,11.50
2022-12-03T10:02:35.977Z,15.50
2022-12-03T10:05:02.906Z,24.10
2022-12-03T10:07:29.823Z,23.70
2022-12-03T10:09:56.844Z,16.50
2022-12-03T10:12:24.389Z,22.50
2022-12-03T10:14:53.029Z,20.80
2022-12-03T10:17:20.808Z,19.40
2022-12-03T10:19:48.658Z,23.00
2022-12-03T10:22:15.435Z,21.90
2022-12-03T10:24:44.193Z,17.40
2022-12-03T10:27:29.627Z,20.20
2022-12-03T10:29:58.452Z,24.10
2022-12-03T10:32:37.769Z,13.50
2022-12-03T10:35:37.073Z,20.40
2022-12-03T10:38:06.821Z,20.20
2022-12-03T10:40:36.672Z,15.10
2022-12-03T10:43:18.922Z,22.20
2022-12-03T10:46:04.117Z,18.50
2022-12-03T10:48:31.234Z,20.40
2022-12-03T10:51:25.713Z,18.90
2022-12-03T10:53:53.863Z,18.90
2022-12-03T10:56:24.855Z,13.00
2022-12-03T10:58:51.898Z,7.10
2022-12-03T11:01:22.825Z,10.10
2022-12-03T11:03:50.244Z,8.50
2022-12-03T11:06:20.384Z,15.30
2022-12-03T11:08:57.141Z,11.70
2022-12-03T11:11:28.405Z,21.50
2022-12-03T11:14:04.450Z,11.90
2022-12-03T11:16:40.196Z,19.90
2022-12-03T11:19:12.904Z,16.30
2022-12-03T11:22:16.890Z,17.30
2022-12-03T11:24:44.356Z,16.90
2022-12-03T11:27:11.087Z,19.50
2022-12-03T11:29:59.050Z,12.70
2022-12-03T11:32:37.690Z,9.40
2022-12-03T11:35:22.496Z,9.40
2022-12-03T11:37:49.348Z,9.30
2022-12-03T11:40:16.060Z,9.00
2022-12-03T11:42:44.841Z,10.40
2022-12-03T11:45:37.091Z,16.10
2022-12-03T11:48:13.590Z,7.60
2022-12-03T11:50:42.563Z,21.10
2022-12-03T11:53:22.259Z,18.10
2022-12-03T11:56:04.067Z,11.40
2022-12-03T11:58:32.498Z,12.20
2022-12-03T12:01:03.110Z,14.30
2022-12-03T12:03:33.190Z,10.10
2022-12-03T12:06:09.309Z,18.80
2022-12-03T12:08:56.643Z,16.00
2022-12-03T12:11:27.874Z,16.00
2022-12-03T12:13:58.378Z,10.00
2022-12-03T12:16:50.194Z,7.60
2022-12-03T12:19:42.824Z,10.70
2022-12-03T12:22:15.269Z,11.00
2022-12-03T12:24:45.288Z,19.50
2022-12-03T12:27:21.370Z,22.50
2022-12-03T12:29:55.128Z,20.70
2022-12-03T12:32:38.229Z,22.90
2022-12-03T12:35:20.822Z,24.20
2022-12-03T12:37:58.545Z,21.50
2022-12-03T12:40:32.419Z,19.90
2022-12-03T12:43:08.191Z,20.80
2022-12-03T12:45:41.764Z,20.00
2022-12-03T12:48:14.729Z,7.30
2022-12-03T12:50:43.572Z,8.80
2022-12-03T12:53:10.519Z,22.80
2022-12-03T12:55:40.318Z,16.10
2022-12-03T12:58:27.837Z,14.00
2022-12-03T13:00:58.141Z,10.50
2022-12-03T13:03:28.276Z,9.10
2022-12-03T13:05:57.111Z,12.80
2022-12-03T13:08:42.205Z,11.30
2022-12-03T13:11:24.179Z,13.80
2022-12-03T13:13:51.605Z,10.60
2022-12-03T13:16:19.370Z,13.00
2022-12-03T13:18:57.775Z,20.90
2022-12-03T13:21:39.982Z,14.10
2022-12-03T13:24:25.507Z,19.70
2022-12-03T13:26:52.725Z,18.70
2022-12-03T13:29:22.265Z,19.10
2022-12-03T13:31:55.431Z,20.10
2022-12-03T13:34:25.912Z,18.60
2022-12-03T13:36:58.132Z,18.80
2022-12-03T13:39:32.709Z,16.70
2022-12-03T13:42:45.358Z,19.80
2022-12-03T13:45:18.301Z,17.80
2022-12-03T13:50:33.690Z,17.80
2022-12-03T13:53:29.106Z,16.10
2022-12-03T13:56:21.246Z,9.50
2022-12-03T13:58:48.043Z,9.30
2022-12-03T14:01:14.865Z,17.90
2022-12-03T14:03:41.699Z,18.10
2022-12-03T14:06:08.340Z,9.90
2022-12-03T14:08:35.141Z,20.30
2022-12-03T14:11:01.716Z,21.80
2022-12-03T14:13:28.494Z,21.90
2022-12-03T14:15:55.402Z,14.70
2022-12-03T14:18:22.408Z,21.80
2022-12-03T14:20:48.979Z,22.60
2022-12-03T14:23:15.809Z,23.30
2022-12-03T14:25:43.399Z,13.60
2022-12-03T14:28:10.498Z,18.40
2022-12-03T14:30:37.271Z,7.30
2022-12-03T14:33:04.209Z,9.30
2022-12-03T14:35:30.979Z,10.30
2022-12-03T14:37:57.792Z,12.00
2022-12-03T14:40:24.747Z,8.80
2022-12-03T14:42:51.352Z,11.50
2022-12-03T14:45:19.713Z,14.80
2022-12-03T14:47:46.610Z,20.30
2022-12-03T14:50:13.666Z,10.20
2022-12-03T14:52:40.363Z,18.80
2022-12-03T14:55:07.574Z,20.90
2022-12-03T14:57:36.236Z,21.20
2022-12-03T15:00:05.169Z,23.10
2022-12-03T15:02:32.218Z,21.20
2022-12-03T15:04:59.064Z,19.60
2022-12-03T15:07:25.937Z,21.40
2022-12-03T15:09:53.176Z,19.50
2022-12-03T15:12:20.257Z,19.40
2022-12-03T15:14:47.051Z,20.00
2022-12-03T15:17:13.827Z,17.60
2022-12-03T15:19:40.919Z,10.10
2022-12-03T15:22:07.573Z,18.50
2022-12-03T15:24:34.517Z,12.90
2022-12-03T15:27:01.239Z,11.90
2022-12-03T15:29:28.254Z,13.80
2022-12-03T15:31:54.937Z,9.20
2022-12-03T15:34:23.196Z,8.30
2022-12-03T15:36:51.010Z,15.20
2022-12-03T15:39:17.851Z,22.90
2022-12-03T15:41:44.706Z,20.90
2022-12-03T15:44:11.455Z,16.20
2022-12-03T15:46:38.370Z,11.00
2022-12-03T15:49:05.286Z,19.60
2022-12-03T15:51:33.081Z,21.20
2022-12-03T15:53:59.670Z,20.40
2022-12-03T15:56:26.713Z,11.90
2022-12-03T15:58:53.738Z,20.90
2022-12-03T16:01:20.957Z,19.80
2022-12-03T16:03:47.915Z,21.80
2022-12-03T16:06:15.075Z,14.70
2022-12-03T16:08:41.787Z,17.80
2022-12-03T16:11:08.621Z,11.60
2022-12-03T16:13:35.344Z,13.00
2022-12-03T16:16:02.472Z,21.50
2022-12-03T16:18:30.163Z,23.10
2022-12-03T16:20:56.854Z,22.90
2022-12-03T16:23:23.874Z,32.00
2022-12-03T16:25:50.541Z,36.30
2022-12-03T16:28:17.517Z,28.70
2022-12-03T16:30:44.486Z,30.50
2022-12-03T16:33:11.505Z,31.70
2022-12-03T16:35:38.157Z,21.30
2022-12-03T16:38:04.995Z,15.20
2022-12-03T16:40:31.770Z,17.20
2022-12-03T16:42:58.658Z,17.20
2022-12-03T16:45:50.330Z,15.20
2022-12-03T16:48:18.109Z,29.90
2022-12-03T16:50:44.797Z,23.30
2022-12-03T16:53:11.606Z,29.40
2022-12-03T16:55:38.491Z,20.70
2022-12-03T16:58:05.198Z,25.90
2022-12-03T17:00:32.026Z,14.80
2022-12-03T17:02:58.706Z,29.10
2022-12-03T17:05:25.625Z,20.10
2022-12-03T17:07:52.523Z,26.30
2022-12-03T17:10:19.301Z,30.50
2022-12-03T17:13:10.162Z,30.90
2022-12-03T17:15:33.590Z,32.40
2022-12-03T17:18:02.852Z,20.90
2022-12-03T17:20:30.715Z,18.60
2022-12-03T17:22:58.840Z,27.40
2022-12-03T17:25:26.315Z,31.80
2022-12-03T17:27:54.097Z,32.70
2022-12-03T17:30:20.967Z,16.70
2022-12-03T17:32:49.793Z,17.00
2022-12-03T17:35:17.376Z,11.80
2022-12-03T17:37:44.435Z,24.60
2022-12-03T17:40:16.316Z,17.90
2022-12-03T17:42:42.964Z,14.30
2022-12-03T17:45:10.527Z,9.00
2022-12-03T17:47:37.606Z,10.10
2022-12-03T17:50:05.273Z,14.00
2022-12-03T17:52:32.242Z,12.80
2022-12-03T17:55:21.544Z,14.10
2022-12-03T17:57:45.637Z,15.70
2022-12-03T18:00:12.799Z,26.20
2022-12-03T18:02:40.527Z,24.50
2022-12-03T18:05:07.759Z,24.00
2022-12-03T18:07:34.672Z,24.90
2022-12-03T18:10:01.908Z,28.70
2022-12-03T18:12:28.510Z,25.70
2022-12-03T18:14:55.268Z,26.00
2022-12-03T18:17:23.681Z,13.50
2022-12-03T18:19:50.700Z,23.00
2022-12-03T18:22:17.657Z,22.80
2022-12-03T18:24:46.258Z,18.70
2022-12-03T18:27:15.099Z,23.90
2022-12-03T18:29:41.939Z,15.70
2022-12-03T18:32:27.276Z,25.30
2022-12-03T18:34:55.949Z,20.00
2022-12-03T18:37:26.796Z,12.30
2022-12-03T18:39:54.733Z,9.70
2022-12-03T18:42:23.329Z,17.30
2022-12-03T18:44:52.090Z,15.90
2022-12-03T18:47:21.789Z,24.60
2022-12-03T18:49:49.065Z,24.70
2022-12-03T20:44:56.158Z,22.80
2022-12-03T20:47:23.259Z,14.10
2022-12-03T20:49:50.165Z,14.20
2022-12-03T20:52:16.999Z,19.90
2022-12-03T20:54:44.063Z,21.80
2022-12-03T20:57:10.729Z,32.80
2022-12-03T20:59:37.413Z,24.30
2022-12-03T21:02:04.398Z,19.70
2022-12-03T21:04:31.467Z,12.80
2022-12-03T21:06:58.240Z,19.20
2022-12-03T21:09:24.867Z,23.80
2022-12-03T21:11:51.594Z,25.90
2022-12-03T21:14:18.480Z,21.60
2022-12-03T21:19:35.502Z,49.00
2022-12-03T21:22:02.309Z,26.80
2022-12-03T21:24:29.498Z,19.00
2022-12-03T21:26:56.347Z,17.70
2022-12-03T21:29:23.221Z,11.60
2022-12-03T21:31:50.620Z,19.10
2022-12-03T21:34:17.340Z,18.30
2022-12-03T21:36:44.208Z,11.00
2022-12-03T21:39:10.992Z,17.80
2022-12-03T21:41:37.860Z,15.00
2022-12-03T21:44:04.528Z,8.00
2022-12-03T21:47:11.575Z,12.20
2022-12-03T21:49:19.840Z,14.60
2022-12-03T21:51:49.473Z,11.90
2022-12-03T21:54:16.182Z,12.00
2022-12-03T21:56:43.645Z,20.80
2022-12-03T21:59:10.310Z,12.60
2022-12-03T22:01:37.304Z,19.40
2022-12-03T22:04:04.348Z,7.90
2022-12-03T22:06:31.085Z,19.80
2022-12-03T22:08:57.808Z,18.20
2022-12-03T22:11:24.613Z,10.80
2022-12-03T22:13:51.442Z,10.50
2022-12-03T22:16:20.602Z,8.30
2022-12-03T22:18:47.636Z,10.40
2022-12-03T22:21:17.745Z,12.50
2022-12-03T22:23:44.603Z,8.20
2022-12-03T22:26:14.234Z,18.50
2022-12-03T22:28:49.055Z,19.50
2022-12-03T22:31:17.716Z,8.30
2022-12-03T22:33:47.672Z,25.30
2022-12-03T22:36:20.618Z,21.50
2022-12-03T22:38:49.855Z,13.60
2022-12-03T22:41:17.307Z,8.00
2022-12-03T22:43:44.927Z,6.40
2022-12-03T22:46:12.112Z,5.10
2022-12-03T22:48:39.763Z,4.90
2022-12-03T22:51:15.009Z,11.50
2022-12-03T22:53:41.946Z,8.80
2022-12-03T22:56:08.660Z,15.20
2022-12-03T22:58:37.394Z,13.20
2022-12-03T23:01:05.864Z,34.90
2022-12-03T23:03:32.991Z,19.30
2022-12-03T23:05:59.640Z,26.30
2022-12-03T23:08:26.450Z,20.60
2022-12-03T23:10:53.242Z,14.90
2022-12-03T23:13:20.282Z,11.00
2022-12-03T23:15:50.064Z,26.60
2022-12-03T23:18:18.757Z,6.70
2022-12-03T23:20:52.596Z,15.20
2022-12-03T23:23:20.968Z,8.10
2022-12-03T23:26:05.540Z,19.60
2022-12-03T23:28:35.123Z,29.40
2022-12-03T23:31:03.058Z,37.00
2022-12-03T23:33:33.998Z,34.00
2022-12-03T23:36:05.692Z,23.60
2022-12-03T23:38:32.538Z,14.90
2022-12-03T23:41:14.207Z,31.60
2022-12-03T23:43:41.035Z,38.90
2022-12-03T23:46:17.553Z,34.50
2022-12-03T23:48:45.059Z,30.50
2022-12-03T23:51:14.831Z,28.40
2022-12-03T23:53:42.933Z,23.00
2022-12-03T23:56:21.540Z,22.20
2022-12-03T23:58:48.389Z,26.30
